Time;durP1;ratioP1;P1;durP2;ratioP2;P2;SDS_P1;SDS_P2;PMS_P1;PMS_P2;Temp;Humidity;BMP_temperature;BMP_pressure;BME280_temperature;BME280_humidity;BME280_pressure;Samples;Min_cycle;Max_cycle;Signal;HPM_P1;HPM_P2
2024/03/31 00:00:44;;;;;;;13.77;7.33;;;9.90;99.90;;;;;;5076145;28;20208;-39
2024/03/31 00:03:10;;;;;;;12.50;6.50;;;9.90;99.90;;;;;;5076706;28;20303;-39
2024/03/31 00:05:35;;;;;;;17.50;7.00;;;9.90;99.90;;;;;;5077036;28;20173;-40
2024/03/31 00:08:01;;;;;;;16.80;6.17;;;9.90;99.90;;;;;;5075746;28;20192;-39
2024/03/31 00:10:27;;;;;;;29.83;7.50;;;9.90;99.90;;;;;;5076182;28;20224;-40
2024/03/31 00:12:52;;;;;;;14.47;6.40;;;9.90;99.90;;;;;;5076290;28;20207;-42
2024/03/31 00:15:18;;;;;;;22.67;7.17;;;9.90;99.90;;;;;;5077028;28;20260;-39
2024/03/31 00:17:43;;;;;;;20.03;6.47;;;9.90;99.90;;;;;;5076993;28;20467;-39
2024/03/31 00:20:24;;;;;;;20.37;7.70;;;9.90;99.90;;;;;;5076564;28;20200;-39
2024/03/31 00:22:50;;;;;;;16.93;6.97;;;9.90;99.90;;;;;;5075611;28;20845;-39
2024/03/31 00:25:16;;;;;;;20.20;6.80;;;9.90;99.90;;;;;;5075072;28;20456;-40
2024/03/31 00:27:42;;;;;;;20.60;7.13;;;9.90;99.90;;;;;;5057348;28;20442;-43
2024/03/31 00:30:08;;;;;;;19.50;6.60;;;9.90;99.90;;;;;;5058580;28;20411;-40
2024/03/31 00:32:33;;;;;;;19.80;7.03;;;9.90;99.90;;;;;;5077704;28;20184;-44
2024/03/31 00:34:59;;;;;;;17.63;7.80;;;9.90;99.90;;;;;;5081559;28;20216;-40
2024/03/31 00:37:24;;;;;;;20.70;7.03;;;10.00;99.90;;;;;;5080880;28;20487;-39
2024/03/31 00:39:50;;;;;;;14.30;6.80;;;10.00;99.90;;;;;;5079934;28;20307;-40
2024/03/31 00:42:16;;;;;;;17.93;6.57;;;10.00;99.90;;;;;;5080563;28;20256;-41
2024/03/31 00:44:41;;;;;;;20.43;8.03;;;10.00;99.90;;;;;;5080643;28;20238;-39
2024/03/31 00:47:07;;;;;;;19.00;6.33;;;10.00;99.90;;;;;;5080764;28;20192;-39
2024/03/31 00:49:32;;;;;;;18.07;6.57;;;10.00;99.90;;;;;;5079431;28;20185;-38
2024/03/31 00:51:58;;;;;;;15.07;5.30;;;10.00;99.90;;;;;;5061432;28;20188;-39
2024/03/31 00:54:24;;;;;;;17.17;6.17;;;10.00;99.90;;;;;;5079358;28;20471;-39
2024/03/31 00:56:49;;;;;;;17.23;5.70;;;10.00;99.90;;;;;;5077922;28;20192;-40
2024/03/31 00:59:15;;;;;;;12.63;5.40;;;10.10;99.90;;;;;;5078410;28;20213;-37
2024/03/31 01:01:40;;;;;;;25.00;5.83;;;10.10;99.90;;;;;;5079023;28;20177;-39
2024/03/31 01:04:06;;;;;;;15.47;4.90;;;10.10;99.90;;;;;;5079661;28;20185;-40
2024/03/31 01:06:32;;;;;;;14.53;5.57;;;10.20;99.90;;;;;;5080575;28;20178;-41
2024/03/31 01:08:57;;;;;;;26.07;5.53;;;10.20;99.90;;;;;;5062294;28;20705;-38
2024/03/31 01:11:24;;;;;;;13.20;4.83;;;10.30;99.90;;;;;;5080625;28;20447;-39
2024/03/31 01:13:49;;;;;;;15.30;5.63;;;10.30;99.90;;;;;;5079910;28;20250;-39
2024/03/31 01:16:16;;;;;;;19.43;5.00;;;10.30;99.90;;;;;;5062559;28;20431;-41
2024/03/31 01:18:42;;;;;;;18.47;4.97;;;10.30;99.90;;;;;;5080685;28;20536;-38
2024/03/31 01:21:09;;;;;;;12.83;5.03;;;10.30;99.90;;;;;;5062897;28;20439;-39
2024/03/31 01:23:43;;;;;;;15.80;4.30;;;10.30;99.90;;;;;;5080132;28;20419;-38
2024/03/31 01:26:09;;;;;;;23.47;6.20;;;10.20;99.90;;;;;;5080927;28;20832;-39
2024/03/31 01:28:35;;;;;;;12.70;4.77;;;10.20;99.90;;;;;;5079713;28;20453;-40
2024/03/31 01:31:01;;;;;;;16.53;6.60;;;10.20;99.90;;;;;;5079085;28;20776;-40
2024/03/31 01:33:27;;;;;;;21.70;7.03;;;10.10;99.90;;;;;;5078448;28;20503;-40
2024/03/31 01:35:52;;;;;;;13.93;5.10;;;10.10;99.90;;;;;;5060429;28;20239;-39
2024/03/31 01:38:18;;;;;;;14.43;5.00;;;10.10;99.90;;;;;;5078741;28;20489;-40
2024/03/31 01:40:44;;;;;;;16.30;5.00;;;10.10;99.90;;;;;;5078754;28;20232;-40
2024/03/31 01:43:09;;;;;;;15.63;4.63;;;10.10;99.90;;;;;;5078437;28;20185;-39
2024/03/31 01:45:35;;;;;;;27.43;6.40;;;10.10;99.90;;;;;;5078902;28;20215;-39
2024/03/31 01:48:00;;;;;;;13.23;4.97;;;10.10;99.90;;;;;;5078572;28;20254;-39
2024/03/31 01:50:26;;;;;;;21.13;6.80;;;10.10;99.90;;;;;;5079253;28;20181;-40
2024/03/31 01:52:52;;;;;;;14.80;5.27;;;10.10;99.90;;;;;;5079619;28;20188;-38
2024/03/31 01:55:17;;;;;;;12.60;5.10;;;10.00;99.90;;;;;;5061648;28;20189;-39
2024/03/31 01:57:43;;;;;;;11.80;5.27;;;10.00;99.90;;;;;;5079017;28;20268;-39
2024/03/31 02:00:10;;;;;;;16.60;5.03;;;10.00;99.90;;;;;;5078229;28;20456;-40
2024/03/31 02:02:35;;;;;;;21.80;5.60;;;10.00;99.90;;;;;;5077931;28;20746;-39
2024/03/31 02:05:01;;;;;;;18.07;5.33;;;10.00;99.90;;;;;;5078676;28;20436;-39
2024/03/31 02:07:26;;;;;;;17.40;6.90;;;9.90;99.90;;;;;;5079570;28;20185;-40
2024/03/31 02:09:52;;;;;;;13.77;5.20;;;9.90;99.90;;;;;;5079353;28;20272;-40
2024/03/31 02:12:18;;;;;;;21.83;6.13;;;9.90;99.90;;;;;;5077874;28;20181;-39
2024/03/31 02:14:43;;;;;;;17.53;4.97;;;9.90;99.90;;;;;;5077785;28;20185;-39
2024/03/31 02:17:09;;;;;;;17.37;5.63;;;9.90;99.90;;;;;;5078862;28;20709;-40
2024/03/31 02:19:35;;;;;;;20.43;5.83;;;9.90;99.90;;;;;;5093423;28;20634;-39
2024/03/31 02:22:00;;;;;;;20.70;5.27;;;9.90;99.90;;;;;;5098651;28;20550;-39
2024/03/31 02:24:26;;;;;;;15.90;6.23;;;9.90;1.00;;;;;;5097915;28;20682;-39
2024/03/31 02:26:52;;;;;;;18.63;5.90;;;9.90;1.00;;;;;;5097429;28;20566;-40
2024/03/31 02:29:18;;;;;;;18.70;5.60;;;9.90;99.90;;;;;;5098262;28;20196;-39
2024/03/31 02:31:44;;;;;;;16.67;5.77;;;9.80;1.00;;;;;;5098243;28;20207;-38
2024/03/31 02:34:10;;;;;;;12.10;4.73;;;9.70;1.00;;;;;;5097960;28;20449;-40
2024/03/31 02:36:35;;;;;;;23.37;7.60;;;9.70;1.00;;;;;;5097809;28;20260;-39
2024/03/31 02:39:01;;;;;;;15.40;6.70;;;9.60;1.00;;;;;;5078542;28;20212;-39
2024/03/31 02:41:26;;;;;;;16.60;5.30;;;9.60;1.00;;;;;;5098466;28;20188;-39
2024/03/31 02:43:52;;;;;;;13.80;5.13;;;9.50;1.00;;;;;;5098484;28;20191;-38
2024/03/31 02:46:18;;;;;;;15.87;5.93;;;9.50;1.00;;;;;;5098931;28;20180;-40
2024/03/31 02:48:44;;;;;;;19.20;6.53;;;9.30;1.00;;;;;;5097964;28;20586;-38
2024/03/31 02:51:09;;;;;;;19.27;5.30;;;9.30;1.00;;;;;;5098640;28;20430;-39
2024/03/31 02:53:35;;;;;;;15.03;5.17;;;9.30;1.00;;;;;;5079479;28;20250;-38
2024/03/31 02:56:01;;;;;;;17.73;6.23;;;9.10;1.00;;;;;;5078643;28;20204;-40
2024/03/31 02:58:26;;;;;;;14.10;5.07;;;9.10;1.00;;;;;;5097520;28;20212;-40
2024/03/31 03:00:52;;;;;;;14.20;4.90;;;9.00;1.00;;;;;;5098064;28;20204;-40
2024/03/31 03:03:18;;;;;;;17.53;5.30;;;9.00;1.00;;;;;;5079373;28;20547;-38
2024/03/31 03:05:53;;;;;;;20.20;6.10;;;8.90;1.00;;;;;;5097943;28;20172;-41
2024/03/31 03:08:18;;;;;;;13.40;5.80;;;8.90;1.00;;;;;;5098032;28;20194;-39
2024/03/31 03:10:51;;;;;;;14.67;4.97;;;8.80;1.00;;;;;;5098052;28;20434;-38
2024/03/31 03:13:17;;;;;;;13.77;4.60;;;8.80;1.00;;;;;;5097685;28;20185;-40
2024/03/31 03:15:44;;;;;;;29.57;5.43;;;8.70;1.00;;;;;;5097501;28;20472;-40
2024/03/31 03:18:11;;;;;;;17.73;4.90;;;8.70;1.00;;;;;;5097459;28;20236;-38
2024/03/31 03:20:37;;;;;;;25.03;6.57;;;8.60;1.00;;;;;;5097747;28;20701;-41
2024/03/31 03:23:03;;;;;;;14.97;4.67;;;8.60;1.00;;;;;;5097363;28;20425;-38
2024/03/31 03:25:29;;;;;;;17.43;5.80;;;8.60;1.00;;;;;;5097684;28;20180;-39
2024/03/31 03:27:55;;;;;;;14.80;4.80;;;8.60;1.00;;;;;;5098021;28;20769;-39
2024/03/31 03:30:20;;;;;;;20.23;5.50;;;8.60;1.00;;;;;;5097958;28;20546;-41
2024/03/31 03:32:46;;;;;;;19.53;5.17;;;8.60;1.00;;;;;;5098288;28;20176;-39
2024/03/31 03:35:12;;;;;;;16.33;4.50;;;8.60;1.00;;;;;;5097934;28;20160;-40
2024/03/31 03:37:37;;;;;;;16.40;4.97;;;8.60;1.00;;;;;;5098037;28;20195;-39
2024/03/31 03:40:03;;;;;;;11.43;4.50;;;8.60;1.00;;;;;;5097322;28;20623;-41
2024/03/31 03:42:29;;;;;;;12.90;4.03;;;8.60;1.00;;;;;;5097453;28;20280;-40
2024/03/31 03:44:54;;;;;;;21.30;5.40;;;8.50;1.00;;;;;;5097925;28;20590;-39
2024/03/31 03:47:20;;;;;;;15.03;5.93;;;8.50;1.00;;;;;;5097192;28;20172;-37
2024/03/31 03:49:46;;;;;;;16.33;4.60;;;8.50;1.00;;;;;;5097765;28;20188;-40
2024/03/31 03:52:12;;;;;;;12.23;5.07;;;8.50;1.00;;;;;;5097553;28;20233;-39
2024/03/31 03:54:37;;;;;;;11.63;4.00;;;8.50;1.00;;;;;;5097059;28;20181;-40
2024/03/31 03:57:03;;;;;;;20.23;4.97;;;8.50;1.00;;;;;;5078898;28;20188;-39
2024/03/31 03:59:29;;;;;;;16.17;5.80;;;8.50;1.00;;;;;;5079041;28;20212;-39
2024/03/31 04:01:54;;;;;;;20.00;5.33;;;8.40;1.00;;;;;;5097572;28;20280;-38
2024/03/31 04:04:20;;;;;;;14.00;4.73;;;8.30;1.00;;;;;;5097436;28;20172;-40
2024/03/31 04:06:45;;;;;;;16.93;5.93;;;8.40;1.00;;;;;;5096823;28;20246;-38
2024/03/31 04:09:11;;;;;;;14.13;4.60;;;8.30;1.00;;;;;;5096888;28;20206;-39
2024/03/31 04:11:37;;;;;;;17.47;3.70;;;8.30;1.00;;;;;;5097537;28;20275;-38
2024/03/31 04:14:02;;;;;;;17.80;5.60;;;8.30;1.00;;;;;;5096981;28;20180;-38
2024/03/31 04:16:28;;;;;;;15.53;6.40;;;8.20;1.00;;;;;;5097128;28;20561;-40
2024/03/31 04:18:54;;;;;;;21.00;7.90;;;8.20;1.00;;;;;;5097144;28;20598;-38
2024/03/31 04:21:19;;;;;;;23.73;5.50;;;8.20;1.00;;;;;;5061350;28;20274;-39
2024/03/31 04:23:46;;;;;;;16.17;5.47;;;8.20;1.00;;;;;;5097013;28;20206;-38
2024/03/31 04:26:11;;;;;;;16.80;5.73;;;8.10;1.00;;;;;;5096694;28;20511;-39
2024/03/31 04:28:37;;;;;;;9.00;4.30;;;8.10;1.00;;;;;;5096261;28;20466;-39
2024/03/31 04:31:03;;;;;;;12.00;5.20;;;8.00;1.00;;;;;;5097321;28;20183;-38
2024/03/31 04:33:32;;;;;;;23.33;6.73;;;8.00;1.00;;;;;;5096930;28;20513;-40
2024/03/31 04:35:57;;;;;;;14.53;4.90;;;8.00;1.00;;;;;;5097116;28;20513;-40
2024/03/31 04:38:23;;;;;;;12.53;4.53;;;8.00;1.00;;;;;;5095571;28;20565;-40
2024/03/31 04:40:56;;;;;;;12.70;4.40;;;7.90;1.00;;;;;;5095838;28;20173;-38
2024/03/31 04:43:22;;;;;;;13.10;4.17;;;7.90;1.00;;;;;;5096884;28;20462;-39
2024/03/31 04:45:57;;;;;;;13.73;3.87;;;7.90;1.00;;;;;;5096875;28;20460;-39
2024/03/31 04:48:23;;;;;;;13.93;4.70;;;7.90;1.00;;;;;;5079096;28;20448;-39
2024/03/31 04:50:48;;;;;;;13.90;4.03;;;7.80;1.00;;;;;;5096329;28;20750;-39
2024/03/31 04:53:14;;;;;;;13.20;4.33;;;7.80;1.00;;;;;;5096413;28;20185;-39
2024/03/31 04:55:40;;;;;;;11.70;4.10;;;7.80;1.00;;;;;;5096103;28;20188;-38
2024/03/31 04:58:06;;;;;;;17.40;4.00;;;7.80;1.00;;;;;;5096988;28;20485;-39
2024/03/31 05:00:31;;;;;;;13.23;4.53;;;7.80;1.00;;;;;;5096966;28;20176;-38
2024/03/31 05:02:57;;;;;;;22.17;5.63;;;7.80;1.00;;;;;;5097826;28;20551;-40
2024/03/31 05:05:22;;;;;;;11.83;5.27;;;7.70;1.00;;;;;;5096742;28;20179;-39
2024/03/31 05:07:48;;;;;;;11.00;4.43;;;7.70;1.00;;;;;;5095723;28;20241;-41
2024/03/31 05:10:14;;;;;;;15.93;4.40;;;7.60;1.00;;;;;;5096732;28;20177;-39
2024/03/31 05:12:39;;;;;;;15.13;4.77;;;7.60;1.00;;;;;;5096367;28;20184;-39
2024/03/31 05:15:05;;;;;;;20.60;4.87;;;7.60;1.00;;;;;;5096796;28;20185;-39
2024/03/31 05:17:31;;;;;;;17.90;4.30;;;7.60;1.00;;;;;;5096351;28;20180;-39
2024/03/31 05:19:57;;;;;;;13.13;5.20;;;7.60;1.00;;;;;;5098142;28;20477;-39
2024/03/31 05:22:22;;;;;;;12.67;5.03;;;7.60;1.00;;;;;;5099916;28;20180;-39
2024/03/31 05:24:48;;;;;;;12.47;4.50;;;7.70;1.00;;;;;;5102275;28;20249;-40
2024/03/31 05:27:14;;;;;;;12.73;4.70;;;7.70;1.00;;;;;;5099468;28;20272;-38
2024/03/31 05:29:40;;;;;;;10.33;4.00;;;7.70;1.00;;;;;;5099773;28;20213;-39
2024/03/31 05:32:06;;;;;;;13.77;4.40;;;7.70;1.00;;;;;;5079743;28;20449;-39
2024/03/31 05:34:31;;;;;;;9.20;3.50;;;7.80;1.00;;;;;;5096652;28;20215;-41
2024/03/31 05:36:57;;;;;;;9.50;4.47;;;7.90;1.00;;;;;;5097426;28;20425;-40
2024/03/31 05:39:22;;;;;;;12.87;3.93;;;7.90;1.00;;;;;;5098195;28;20207;-39
2024/03/31 05:41:48;;;;;;;12.20;4.40;;;7.90;1.00;;;;;;5098345;28;20299;-40
2024/03/31 05:44:14;;;;;;;11.83;3.83;;;7.90;1.00;;;;;;5080134;28;20202;-38
2024/03/31 05:46:39;;;;;;;13.70;4.50;;;8.00;1.00;;;;;;5099703;28;20211;-39
2024/03/31 05:49:05;;;;;;;12.00;4.30;;;8.00;1.00;;;;;;5080105;28;20195;-40
2024/03/31 05:51:31;;;;;;;10.53;3.93;;;8.10;1.00;;;;;;5098048;28;20188;-38
2024/03/31 05:53:57;;;;;;;23.13;6.70;;;8.20;1.00;;;;;;5099025;28;20194;-39
2024/03/31 05:56:23;;;;;;;16.17;5.80;;;8.30;1.00;;;;;;5080858;28;20282;-41
2024/03/31 05:58:48;;;;;;;13.57;6.17;;;8.30;1.00;;;;;;5098829;28;20501;-39
2024/03/31 06:01:14;;;;;;;10.40;5.20;;;8.40;1.00;;;;;;5098645;28;20191;-38
2024/03/31 06:03:39;;;;;;;18.60;6.10;;;8.40;1.00;;;;;;5097799;28;20172;-39
2024/03/31 06:06:05;;;;;;;18.57;7.07;;;8.50;1.00;;;;;;5099604;28;20173;-40
2024/03/31 06:08:31;;;;;;;12.30;6.20;;;8.50;1.00;;;;;;5081515;28;20172;-41
2024/03/31 06:10:57;;;;;;;12.63;6.20;;;8.50;1.00;;;;;;5098226;28;20250;-39
2024/03/31 06:13:23;;;;;;;17.27;7.50;;;8.50;1.00;;;;;;5080453;28;20219;-39
2024/03/31 06:15:49;;;;;;;16.77;7.43;;;8.50;1.00;;;;;;5097618;28;20467;-39
2024/03/31 06:18:14;;;;;;;9.03;5.80;;;8.60;1.00;;;;;;5097285;28;20269;-39
2024/03/31 06:20:40;;;;;;;11.37;6.10;;;8.70;1.00;;;;;;5097961;28;20554;-39
2024/03/31 06:23:06;;;;;;;13.90;6.73;;;8.80;1.00;;;;;;5097980;28;20225;-38
2024/03/31 06:25:31;;;;;;;8.53;5.70;;;8.90;1.00;;;;;;5099327;28;20176;-39
2024/03/31 06:27:57;;;;;;;11.50;6.00;;;9.00;1.00;;;;;;5098937;28;20187;-40
2024/03/31 06:30:23;;;;;;;11.57;7.10;;;9.00;1.00;;;;;;5098798;28;20169;-40
2024/03/31 06:32:48;;;;;;;15.13;8.17;;;9.10;1.00;;;;;;5098476;28;20321;-39
2024/03/31 06:35:14;;;;;;;15.03;7.30;;;9.20;1.00;;;;;;5098986;28;20171;-38
2024/03/31 06:37:40;;;;;;;13.67;8.93;;;9.20;1.00;;;;;;5098273;28;20593;-38
2024/03/31 06:40:06;;;;;;;13.87;7.60;;;9.20;1.00;;;;;;5098175;28;20203;-40
2024/03/31 06:42:32;;;;;;;13.20;7.70;;;9.20;1.00;;;;;;5097828;28;20237;-41
2024/03/31 06:44:57;;;;;;;15.07;8.50;;;9.30;1.00;;;;;;5097582;28;20426;-38
2024/03/31 06:47:23;;;;;;;13.10;8.93;;;9.30;1.00;;;;;;5098179;28;20179;-40
2024/03/31 06:49:49;;;;;;;25.43;8.50;;;9.30;1.00;;;;;;5077509;28;20181;-40
2024/03/31 06:52:15;;;;;;;13.20;8.40;;;9.40;1.00;;;;;;5078439;28;20673;-38
2024/03/31 06:54:40;;;;;;;19.60;9.67;;;9.40;1.00;;;;;;5078079;28;20177;-39
2024/03/31 06:57:06;;;;;;;19.07;9.93;;;9.40;1.00;;;;;;5077722;28;20185;-39
2024/03/31 06:59:32;;;;;;;15.60;9.17;;;9.40;1.00;;;;;;5077397;28;20247;-40
2024/03/31 07:01:57;;;;;;;19.20;11.10;;;9.50;1.00;;;;;;5077062;28;20616;-42
2024/03/31 07:04:23;;;;;;;17.87;10.07;;;9.60;1.00;;;;;;5059433;28;20185;-39
2024/03/31 07:06:49;;;;;;;18.43;9.23;;;9.60;1.00;;;;;;5078086;28;20233;-39
2024/03/31 07:09:16;;;;;;;16.93;9.57;;;9.70;1.00;;;;;;5077909;28;20181;-39
2024/03/31 07:11:42;;;;;;;21.50;10.93;;;9.80;1.00;;;;;;5060412;28;20408;-38
2024/03/31 07:14:07;;;;;;;18.83;9.80;;;9.80;1.00;;;;;;5059787;28;20825;-38
2024/03/31 07:16:33;;;;;;;14.93;8.80;;;9.80;1.00;;;;;;5077615;28;20427;-39
2024/03/31 07:18:59;;;;;;;14.73;9.60;;;9.80;1.00;;;;;;5077148;28;20618;-41
2024/03/31 07:21:24;;;;;;;15.00;9.37;;;9.90;1.00;;;;;;5078006;28;20184;-39
2024/03/31 07:23:50;;;;;;;14.10;9.40;;;10.00;1.00;;;;;;5077694;28;20291;-40
2024/03/31 07:26:16;;;;;;;16.43;10.20;;;10.20;1.00;;;;;;5058950;28;20302;-40
2024/03/31 07:28:42;;;;;;;16.50;8.60;;;10.40;1.00;;;;;;5059367;28;20287;-39
2024/03/31 07:31:08;;;;;;;18.80;9.77;;;10.70;1.00;;;;;;5076425;28;20485;-39
2024/03/31 07:33:33;;;;;;;21.17;8.53;;;10.90;1.00;;;;;;5075737;28;20184;-39
2024/03/31 07:35:59;;;;;;;14.00;8.37;;;11.20;1.00;;;;;;5075130;28;20392;-39
2024/03/31 07:38:25;;;;;;;12.30;6.13;;;11.30;1.00;;;;;;5076724;28;20307;-38
2024/03/31 07:40:51;;;;;;;15.80;5.97;;;11.50;1.00;;;;;;5060094;28;20185;-39
2024/03/31 07:43:26;;;;;;;13.03;5.70;;;11.70;1.00;;;;;;5076638;28;20685;-39
2024/03/31 07:45:52;;;;;;;15.37;5.33;;;11.90;99.90;;;;;;5075982;28;20189;-39
2024/03/31 07:48:18;;;;;;;9.80;4.40;;;12.20;99.90;;;;;;5075609;28;20427;-40
2024/03/31 07:50:44;;;;;;;10.47;4.13;;;12.50;99.90;;;;;;5076409;28;20252;-40
2024/03/31 07:53:10;;;;;;;16.23;4.93;;;12.70;99.90;;;;;;5076091;28;20410;-39
2024/03/31 07:55:36;;;;;;;12.30;5.20;;;12.90;99.90;;;;;;5075920;28;20423;-41
2024/03/31 07:58:02;;;;;;;23.63;4.60;;;13.10;99.90;;;;;;5076515;28;20438;-41
2024/03/31 08:00:28;;;;;;;15.17;4.30;;;13.50;31.80;;;;;;5075821;28;20200;-40
2024/03/31 08:02:54;;;;;;;14.13;4.07;;;13.80;99.90;;;;;;5058225;28;20242;-38
2024/03/31 08:05:19;;;;;;;18.40;4.33;;;14.00;99.90;;;;;;5076714;28;20411;-40
2024/03/31 08:07:45;;;;;;;15.80;4.23;;;14.00;1.00;;;;;;5059435;28;20177;-39
2024/03/31 08:10:11;;;;;;;15.90;4.30;;;14.10;99.90;;;;;;5076877;28;20223;-41
2024/03/31 08:12:36;;;;;;;11.67;4.10;;;14.10;2.50;;;;;;5076973;28;20250;-39
2024/03/31 08:15:03;;;;;;;9.93;4.30;;;14.30;1.00;;;;;;5076639;28;20207;-39
2024/03/31 08:17:28;;;;;;;12.97;3.97;;;14.40;1.00;;;;;;5076304;28;20176;-40
2024/03/31 08:19:54;;;;;;;11.00;3.50;;;14.70;99.90;;;;;;5076330;28;20498;-39
2024/03/31 08:22:20;;;;;;;15.40;4.43;;;15.00;1.00;;;;;;5076524;28;20560;-41
2024/03/31 08:24:46;;;;;;;13.60;3.70;;;15.30;99.90;;;;;;5076926;28;20257;-38
2024/03/31 08:27:12;;;;;;;3.77;1.80;;;15.40;1.00;;;;;;5058136;28;20211;-47
2024/03/31 08:29:38;;;;;;;25.83;8.77;;;15.80;1.00;;;;;;5075392;28;20753;-48
2024/03/31 08:32:04;;;;;;;27.63;7.87;;;16.50;1.00;;;;;;5057832;28;20426;-46
2024/03/31 08:34:30;;;;;;;19.33;7.30;;;16.90;99.90;;;;;;5075645;28;20275;-45
2024/03/31 08:36:55;;;;;;;21.57;7.40;;;17.20;1.00;;;;;;5074763;28;20523;-46
2024/03/31 08:39:21;;;;;;;21.97;4.73;;;17.50;1.00;;;;;;5074006;28;20599;-46
2024/03/31 08:42:19;;;;;;;16.50;4.30;;;17.70;1.00;;;;;;5074569;28;20189;-49
2024/03/31 08:44:45;;;;;;;19.30;4.20;;;17.90;99.90;;;;;;5056368;28;20161;-47
2024/03/31 08:47:12;;;;;;;16.87;3.60;;;18.00;99.90;;;;;;5054866;28;20404;-51
2024/03/31 08:49:39;;;;;;;13.20;3.60;;;18.30;99.90;;;;;;5054049;28;20427;-47
2024/03/31 08:52:05;;;;;;;14.33;3.70;;;18.60;99.90;;;;;;5072304;28;20743;-49
2024/03/31 08:54:31;;;;;;;15.03;4.13;;;18.70;99.90;;;;;;5077136;28;20487;-48
2024/03/31 08:56:56;;;;;;;12.20;2.73;;;18.60;99.90;;;;;;5060161;28;20427;-49
2024/03/31 08:59:22;;;;;;;12.67;3.40;;;18.40;99.90;;;;;;5060299;28;20207;-47
2024/03/31 09:01:48;;;;;;;13.13;3.80;;;18.50;99.90;;;;;;5078874;28;20211;-48
2024/03/31 09:04:13;;;;;;;10.93;3.17;;;18.60;99.90;;;;;;5078224;28;20615;-48
2024/03/31 09:06:39;;;;;;;14.53;3.20;;;18.90;71.50;;;;;;5078618;28;20856;-49
2024/03/31 09:09:05;;;;;;;7.63;3.37;;;19.20;51.80;;;;;;5061375;28;20317;-47
2024/03/31 09:11:31;;;;;;;11.87;3.10;;;19.50;36.70;;;;;;5079277;28;20184;-48
2024/03/31 09:13:57;;;;;;;13.30;3.73;;;19.50;21.20;;;;;;5079679;28;20209;-48
2024/03/31 09:16:24;;;;;;;20.23;4.33;;;19.40;6.30;;;;;;5079165;28;20524;-49
2024/03/31 09:18:49;;;;;;;15.77;3.80;;;19.10;1.00;;;;;;5079718;28;20498;-50
2024/03/31 09:21:15;;;;;;;12.00;3.60;;;18.70;1.00;;;;;;5060796;28;20427;-48
2024/03/31 09:23:41;;;;;;;14.30;2.87;;;18.40;1.30;;;;;;5079053;28;20315;-48
2024/03/31 09:26:06;;;;;;;13.00;3.17;;;18.00;1.00;;;;;;5062335;28;20197;-49
2024/03/31 09:28:32;;;;;;;12.27;3.97;;;17.70;7.40;;;;;;5079748;28;20181;-43
2024/03/31 09:30:58;;;;;;;16.90;3.57;;;17.70;21.70;;;;;;5062035;28;20181;-43
2024/03/31 09:33:24;;;;;;;19.53;4.77;;;17.80;29.70;;;;;;5061056;28;20864;-44
2024/03/31 09:35:52;;;;;;;17.80;5.13;;;18.10;30.00;;;;;;5079588;28;20192;-44
2024/03/31 09:38:18;;;;;;;11.23;4.03;;;18.60;37.40;;;;;;5062152;28;20212;-47
2024/03/31 09:40:45;;;;;;;14.90;4.30;;;18.90;8.10;;;;;;5061853;28;20427;-44
2024/03/31 09:43:11;;;;;;;14.70;4.03;;;18.90;11.40;;;;;;5044037;28;20537;-44
2024/03/31 09:45:42;;;;;;;13.77;3.93;;;18.80;1.00;;;;;;5059962;28;20427;-53
2024/03/31 09:48:11;;;;;;;14.73;4.30;;;18.40;1.00;;;;;;5060129;28;20177;-46
2024/03/31 09:50:42;;;;;;;20.40;4.80;;;17.80;1.00;;;;;;5061270;28;20411;-43
2024/03/31 09:53:09;;;;;;;14.07;3.60;;;17.30;1.00;;;;;;5077777;28;20501;-42
2024/03/31 09:55:39;;;;;;;13.83;4.60;;;17.20;7.80;;;;;;5060322;28;20530;-43
2024/03/31 09:58:11;;;;;;;14.77;3.47;;;17.50;20.30;;;;;;5077865;28;20757;-43
2024/03/31 10:00:41;;;;;;;14.37;4.80;;;18.10;27.10;;;;;;5077991;28;20510;-46
2024/03/31 10:03:14;;;;;;;15.07;4.13;;;18.90;2.40;;;;;;5076513;28;20442;-45
2024/03/31 10:05:41;;;;;;;15.73;3.83;;;19.30;1.00;;;;;;5076832;28;20400;-44
2024/03/31 10:08:10;;;;;;;16.93;3.77;;;19.10;1.00;;;;;;5060110;28;20423;-44
2024/03/31 10:10:37;;;;;;;10.40;3.60;;;19.50;1.00;;;;;;5076857;28;20697;-45
2024/03/31 10:13:04;;;;;;;12.53;4.87;;;19.90;1.00;;;;;;5075509;28;20423;-44
2024/03/31 10:15:32;;;;;;;15.10;4.30;;;20.10;1.00;;;;;;5077382;28;20924;-45
2024/03/31 10:17:59;;;;;;;13.20;3.80;;;20.30;1.00;;;;;;5056676;28;20575;-44
2024/03/31 10:20:26;;;;;;;14.67;3.73;;;21.00;1.00;;;;;;5057753;28;20478;-44
2024/03/31 10:22:53;;;;;;;11.50;3.97;;;21.40;1.00;;;;;;5057957;28;20431;-47
2024/03/31 10:25:19;;;;;;;17.07;3.67;;;21.00;1.00;;;;;;5059232;28;20443;-45
2024/03/31 10:27:47;;;;;;;16.80;3.90;;;21.00;1.00;;;;;;5057793;28;20428;-42
2024/03/31 10:30:13;;;;;;;6.43;3.00;;;21.00;1.00;;;;;;5058567;28;20760;-43
2024/03/31 10:32:39;;;;;;;12.77;4.33;;;21.10;1.00;;;;;;5058018;28;20416;-42
2024/03/31 10:35:06;;;;;;;15.60;4.53;;;21.30;1.00;;;;;;5058019;28;20302;-43
2024/03/31 10:37:32;;;;;;;18.00;5.00;;;21.30;1.00;;;;;;5057196;28;20528;-44
2024/03/31 10:39:59;;;;;;;11.83;3.20;;;21.50;1.00;;;;;;5056726;28;20494;-42
2024/03/31 10:42:25;;;;;;;12.33;3.43;;;21.50;1.00;;;;;;5058047;28;20456;-44
2024/03/31 10:44:54;;;;;;;20.70;4.20;;;21.40;1.00;;;;;;5058383;28;20711;-46
2024/03/31 10:47:21;;;;;;;14.87;4.47;;;21.50;1.00;;;;;;5056971;28;20197;-43
2024/03/31 10:49:46;;;;;;;10.00;3.10;;;21.40;1.00;;;;;;5055588;28;20438;-44
2024/03/31 10:52:13;;;;;;;10.00;2.97;;;21.50;1.00;;;;;;5057665;28;20526;-44
2024/03/31 10:54:40;;;;;;;11.17;3.77;;;21.40;1.00;;;;;;5058482;28;20444;-43
2024/03/31 10:57:13;;;;;;;8.97;3.17;;;20.90;1.00;;;;;;5056511;28;20428;-42
2024/03/31 10:59:40;;;;;;;10.80;3.20;;;20.50;1.00;;;;;;5056933;28;20948;-43
2024/03/31 11:02:18;;;;;;;16.23;3.33;;;20.30;1.00;;;;;;5055844;28;20704;-44
2024/03/31 11:04:45;;;;;;;11.57;3.60;;;20.20;1.00;;;;;;5053631;28;20420;-43
2024/03/31 11:07:12;;;;;;;17.50;3.33;;;20.20;1.00;;;;;;5054582;28;20695;-45
2024/03/31 11:09:39;;;;;;;12.70;3.73;;;20.10;1.00;;;;;;5056830;28;20523;-44
2024/03/31 11:12:06;;;;;;;9.23;3.23;;;20.00;1.00;;;;;;5057417;28;20432;-42
2024/03/31 11:14:36;;;;;;;20.87;5.33;;;19.90;1.00;;;;;;5057550;28;20485;-44
2024/03/31 11:17:02;;;;;;;11.80;3.70;;;19.80;1.00;;;;;;5057028;28;20408;-42
2024/03/31 11:19:28;;;;;;;13.37;3.00;;;19.60;1.00;;;;;;5073712;28;20480;-43
2024/03/31 11:21:56;;;;;;;16.13;3.37;;;19.50;1.00;;;;;;5059931;28;20923;-45
2024/03/31 11:24:22;;;;;;;22.53;4.20;;;19.50;1.00;;;;;;5076821;28;20430;-43
2024/03/31 11:26:48;;;;;;;13.93;4.20;;;19.60;1.00;;;;;;5076785;28;20465;-46
2024/03/31 11:29:14;;;;;;;13.63;3.63;;;19.60;1.00;;;;;;5076441;28;20415;-45
2024/03/31 11:31:40;;;;;;;8.03;3.20;;;19.50;1.00;;;;;;5057714;28;20438;-42
2024/03/31 11:34:07;;;;;;;19.80;3.77;;;19.50;1.00;;;;;;5057052;28;20428;-42
2024/03/31 11:36:32;;;;;;;13.57;3.60;;;19.50;1.00;;;;;;5056415;28;20177;-42
2024/03/31 11:38:58;;;;;;;19.33;4.03;;;19.70;1.00;;;;;;5074236;28;20482;-44
2024/03/31 11:41:25;;;;;;;14.07;4.50;;;20.00;1.00;;;;;;5073177;28;20238;-46
2024/03/31 11:43:50;;;;;;;17.40;3.53;;;20.30;1.00;;;;;;5075284;28;20185;-43
2024/03/31 11:46:18;;;;;;;11.53;3.60;;;21.00;1.00;;;;;;5076725;28;20430;-43
2024/03/31 11:48:43;;;;;;;11.27;2.87;;;21.60;1.00;;;;;;5075560;28;20169;-43
2024/03/31 11:51:09;;;;;;;10.97;3.73;;;22.30;1.00;;;;;;5055864;28;20488;-44
2024/03/31 11:53:35;;;;;;;9.43;3.10;;;22.80;1.00;;;;;;5076664;28;20184;-43
2024/03/31 11:56:00;;;;;;;11.03;3.47;;;23.20;1.00;;;;;;5076829;28;20234;-43
2024/03/31 11:58:26;;;;;;;14.17;4.17;;;23.30;1.00;;;;;;5058156;28;20204;-42
2024/03/31 12:00:52;;;;;;;11.73;3.70;;;23.30;1.00;;;;;;5075064;28;20176;-42
2024/03/31 12:03:18;;;;;;;16.90;4.30;;;23.30;1.00;;;;;;5076607;28;20180;-42
2024/03/31 12:05:50;;;;;;;13.00;3.27;;;23.30;1.00;;;;;;5076206;28;20620;-44
2024/03/31 12:08:19;;;;;;;17.10;3.87;;;23.10;1.00;;;;;;5058678;28;20566;-44
2024/03/31 12:10:48;;;;;;;12.43;4.10;;;22.90;1.00;;;;;;5055730;28;20530;-42
2024/03/31 12:13:15;;;;;;;19.13;3.93;;;22.70;1.00;;;;;;5072351;28;20467;-42
2024/03/31 12:15:41;;;;;;;11.80;3.83;;;22.50;1.00;;;;;;5074512;28;20763;-45
2024/03/31 12:18:07;;;;;;;13.80;4.47;;;22.50;1.00;;;;;;5074424;28;20544;-45
2024/03/31 12:20:34;;;;;;;11.20;3.83;;;22.40;1.00;;;;;;5074712;28;20407;-44
2024/03/31 12:22:59;;;;;;;12.80;4.20;;;22.30;1.00;;;;;;5075892;28;20758;-46
2024/03/31 12:25:26;;;;;;;14.17;4.30;;;22.20;1.00;;;;;;5076120;28;20470;-44
2024/03/31 12:27:52;;;;;;;14.03;4.03;;;22.00;1.00;;;;;;5076354;28;20184;-44
2024/03/31 12:30:18;;;;;;;9.40;3.40;;;21.80;1.00;;;;;;5080167;28;20442;-45
2024/03/31 12:32:44;;;;;;;12.50;3.83;;;21.70;1.00;;;;;;5079534;28;20789;-44
2024/03/31 12:35:10;;;;;;;18.17;3.90;;;21.30;1.00;;;;;;5063329;28;20415;-47
2024/03/31 12:37:39;;;;;;;12.63;4.00;;;21.10;1.00;;;;;;5079382;28;20435;-46
2024/03/31 12:40:08;;;;;;;11.33;3.67;;;21.00;1.00;;;;;;5078609;28;20204;-43
2024/03/31 12:42:40;;;;;;;18.00;4.03;;;21.00;1.00;;;;;;5079874;28;20446;-45